Archival Weather

Tokyo Intl

Tokyo, Japan (RJTT)

Report from: Saturday, April 1, 2023 4:00 AM JST
Current time: Sunday, July 14, 2024 8:21 PM JST

Current weather – Weather history – Daily summaries
Weather forecast

Temperature12.0°C (53.6°F)
Dew point10.0°C (50.0°F)
Winds 2 kts (1 m/s, 2.3 mph) West-Northwest (300°)
Clouds Sky clear
Altimeter29.97 in.Hg (1015 mB)
Relative humidity88 %
Density altitude-243 ft. (-74 m)
Remarks Ceiling and visibility OK
No significant changes expected in the next two hours
Flight conditions Visual Meteorological Conditions
Raw dataRJTT 311900Z 30002KT CAVOK 12/10 Q1015 NOSIG
An error has occurred. This application may no longer respond until reloaded. Reload 🗙